Terminal Aerodrome Forecast
Issued by NWS Green Bay, WI

Home | Current Version | Previous Version | Text Only | Print | Product List | Glossary On
Versions: 1 2 3 4 5 6 7 8 9 10 11 12 13 14 15 16 17 18 19 20 21 22 23 24 25 26 27 28 29 30 31 32 33 34 35 36 37 38
000
FTUS43 KGRB 280319 AAB
TAFGRB
TAF AMD
KGRB 280319Z 2803/2824 20003KT P6SM OVC004
     FM280500 26003KT 2SM BR BKN003
      TEMPO 2810/2813 1/2SM FG VV002
     FM281400 29004KT P6SM SCT004 BKN020
     FM281700 24006KT P6SM SCT025=

USA.gov is the U.S. government's official web portal to all federal, state and local government web resources and services.